sensor_id;sensor_type;location;lat;lon;timestamp;pressure;altitude;pressure_sealevel;temperature;humidity
31005;BME280;17676;52.254;4.490;2023-04-16T00:02:12;102248.72;;;9.87;100.00
31005;BME280;17676;52.254;4.490;2023-04-16T00:04:38;102245.50;;;9.84;100.00
31005;BME280;17676;52.254;4.490;2023-04-16T00:07:04;102247.72;;;9.88;100.00
31005;BME280;17676;52.254;4.490;2023-04-16T00:09:29;102234.84;;;9.74;100.00
31005;BME280;17676;52.254;4.490;2023-04-16T00:11:55;102233.16;;;9.89;100.00
31005;BME280;17676;52.254;4.490;2023-04-16T00:14:21;102240.44;;;9.89;100.00
31005;BME280;17676;52.254;4.490;2023-04-16T00:16:47;102236.91;;;9.88;100.00
31005;BME280;17676;52.254;4.490;2023-04-16T00:19:12;102248.88;;;10.02;100.00
31005;BME280;17676;52.254;4.490;2023-04-16T00:21:38;102240.63;;;10.03;100.00
31005;BME280;17676;52.254;4.490;2023-04-16T00:24:04;102237.38;;;9.92;100.00
31005;BME280;17676;52.254;4.490;2023-04-16T00:26:31;102246.34;;;10.00;100.00
31005;BME280;17676;52.254;4.490;2023-04-16T00:28:56;102245.50;;;10.00;100.00
31005;BME280;17676;52.254;4.490;2023-04-16T00:31:29;102231.31;;;9.82;100.00
31005;BME280;17676;52.254;4.490;2023-04-16T00:33:55;102232.34;;;9.89;100.00
31005;BME280;17676;52.254;4.490;2023-04-16T00:36:22;102229.28;;;9.84;100.00
31005;BME280;17676;52.254;4.490;2023-04-16T00:38:49;102237.22;;;9.85;100.00
31005;BME280;17676;52.254;4.490;2023-04-16T00:41:14;102235.22;;;9.95;100.00
31005;BME280;17676;52.254;4.490;2023-04-16T00:43:40;102227.25;;;10.02;100.00
31005;BME280;17676;52.254;4.490;2023-04-16T00:46:07;102223.22;;;10.06;100.00
31005;BME280;17676;52.254;4.490;2023-04-16T00:48:33;102228.94;;;10.03;100.00
31005;BME280;17676;52.254;4.490;2023-04-16T00:50:59;102237.53;;;9.98;100.00
31005;BME280;17676;52.254;4.490;2023-04-16T00:53:26;102223.53;;;10.03;100.00
31005;BME280;17676;52.254;4.490;2023-04-16T00:55:52;102241.13;;;10.07;100.00
31005;BME280;17676;52.254;4.490;2023-04-16T00:58:20;102229.28;;;9.84;100.00
31005;BME280;17676;52.254;4.490;2023-04-16T01:00:46;102226.94;;;9.89;100.00
31005;BME280;17676;52.254;4.490;2023-04-16T01:03:11;102233.31;;;9.96;100.00
31005;BME280;17676;52.254;4.490;2023-04-16T01:05:37;102226.25;;;9.79;100.00
31005;BME280;17676;52.254;4.490;2023-04-16T01:08:03;102226.25;;;9.87;100.00
31005;BME280;17676;52.254;4.490;2023-04-16T01:10:29;102226.75;;;9.82;100.00
31005;BME280;17676;52.254;4.490;2023-04-16T01:12:55;102246.84;;;9.88;100.00
31005;BME280;17676;52.254;4.490;2023-04-16T01:15:21;102241.13;;;9.91;100.00
31005;BME280;17676;52.254;4.490;2023-04-16T01:17:47;102242.31;;;9.80;100.00
31005;BME280;17676;52.254;4.490;2023-04-16T01:20:13;102230.31;;;9.75;100.00
31005;BME280;17676;52.254;4.490;2023-04-16T01:22:38;102237.91;;;9.71;100.00
31005;BME280;17676;52.254;4.490;2023-04-16T01:25:05;102253.63;;;9.76;100.00
31005;BME280;17676;52.254;4.490;2023-04-16T01:27:31;102236.03;;;9.72;100.00
31005;BME280;17676;52.254;4.490;2023-04-16T01:29:56;102243.31;;;9.79;100.00
31005;BME280;17676;52.254;4.490;2023-04-16T01:32:22;102250.41;;;9.80;100.00
31005;BME280;17676;52.254;4.490;2023-04-16T01:34:48;102231.31;;;9.74;100.00
31005;BME280;17676;52.254;4.490;2023-04-16T01:37:14;102245.50;;;9.84;100.00
31005;BME280;17676;52.254;4.490;2023-04-16T01:39:40;102245.50;;;9.68;100.00
31005;BME280;17676;52.254;4.490;2023-04-16T01:42:05;102232.66;;;9.70;100.00
31005;BME280;17676;52.254;4.490;2023-04-16T01:44:31;102228.94;;;9.55;100.00
31005;BME280;17676;52.254;4.490;2023-04-16T01:46:57;102248.72;;;9.71;100.00
31005;BME280;17676;52.254;4.490;2023-04-16T01:49:22;102237.38;;;9.76;100.00
31005;BME280;17676;52.254;4.490;2023-04-16T01:51:48;102242.13;;;9.82;100.00
31005;BME280;17676;52.254;4.490;2023-04-16T01:54:15;102244.50;;;9.85;100.00
31005;BME280;17676;52.254;4.490;2023-04-16T01:56:41;102246.19;;;9.86;100.00
31005;BME280;17676;52.254;4.490;2023-04-16T01:59:06;102256.16;;;9.77;100.00
31005;BME280;17676;52.254;4.490;2023-04-16T02:01:32;102240.63;;;9.79;100.00
31005;BME280;17676;52.254;4.490;2023-04-16T02:03:59;102250.25;;;9.74;100.00
31005;BME280;17676;52.254;4.490;2023-04-16T02:06:25;102247.88;;;9.79;100.00
31005;BME280;17676;52.254;4.490;2023-04-16T02:08:51;102248.38;;;9.82;100.00
31005;BME280;17676;52.254;4.490;2023-04-16T02:11:17;102262.75;;;9.75;100.00
31005;BME280;17676;52.254;4.490;2023-04-16T02:13:42;102245.84;;;9.65;100.00
31005;BME280;17676;52.254;4.490;2023-04-16T02:16:11;102260.19;;;9.73;100.00
31005;BME280;17676;52.254;4.490;2023-04-16T02:18:37;102254.47;;;9.60;100.00
31005;BME280;17676;52.254;4.490;2023-04-16T02:21:02;102257.00;;;9.62;100.00
31005;BME280;17676;52.254;4.490;2023-04-16T02:23:30;102254.28;;;9.54;100.00
31005;BME280;17676;52.254;4.490;2023-04-16T02:25:56;102259.00;;;9.52;100.00
31005;BME280;17676;52.254;4.490;2023-04-16T02:28:22;102267.66;;;9.63;100.00
31005;BME280;17676;52.254;4.490;2023-04-16T02:30:48;102261.38;;;9.63;100.00
31005;BME280;17676;52.254;4.490;2023-04-16T02:33:13;102258.50;;;9.56;100.00
31005;BME280;17676;52.254;4.490;2023-04-16T02:35:39;102273.53;;;9.59;100.00
31005;BME280;17676;52.254;4.490;2023-04-16T02:38:06;102273.88;;;9.64;100.00
31005;BME280;17676;52.254;4.490;2023-04-16T02:40:32;102267.63;;;9.55;100.00
31005;BME280;17676;52.254;4.490;2023-04-16T02:42:57;102258.19;;;9.59;100.00
31005;BME280;17676;52.254;4.490;2023-04-16T02:45:23;102260.03;;;9.67;100.00
31005;BME280;17676;52.254;4.490;2023-04-16T02:47:49;102264.75;;;9.57;100.00
31005;BME280;17676;52.254;4.490;2023-04-16T02:50:16;102272.50;;;9.52;100.00
31005;BME280;17676;52.254;4.490;2023-04-16T02:52:42;102267.78;;;9.54;100.00
31005;BME280;17676;52.254;4.490;2023-04-16T02:55:08;102269.47;;;9.47;100.00
31005;BME280;17676;52.254;4.490;2023-04-16T02:57:34;102268.81;;;9.53;100.00
31005;BME280;17676;52.254;4.490;2023-04-16T02:59:59;102281.16;;;9.63;100.00
31005;BME280;17676;52.254;4.490;2023-04-16T03:02:25;102278.59;;;9.54;100.00
31005;BME280;17676;52.254;4.490;2023-04-16T03:04:52;102274.53;;;9.50;100.00
31005;BME280;17676;52.254;4.490;2023-04-16T03:07:18;102271.50;;;9.45;100.00
31005;BME280;17676;52.254;4.490;2023-04-16T03:09:44;102288.72;;;9.52;100.00
31005;BME280;17676;52.254;4.490;2023-04-16T03:12:10;102265.72;;;9.32;100.00
31005;BME280;17676;52.254;4.490;2023-04-16T03:14:35;102274.84;;;9.39;100.00
31005;BME280;17676;52.254;4.490;2023-04-16T03:17:01;102282.13;;;9.38;100.00
31005;BME280;17676;52.254;4.490;2023-04-16T03:19:27;102262.53;;;9.36;100.00
31005;BME280;17676;52.254;4.490;2023-04-16T03:21:52;102279.22;;;9.40;100.00
31005;BME280;17676;52.254;4.490;2023-04-16T03:24:18;102281.31;;;9.54;100.00
31005;BME280;17676;52.254;4.490;2023-04-16T03:26:44;102275.03;;;9.53;100.00
31005;BME280;17676;52.254;4.490;2023-04-16T03:29:09;102274.53;;;9.50;100.00
31005;BME280;17676;52.254;4.490;2023-04-16T03:31:35;102285.34;;;9.50;100.00
31005;BME280;17676;52.254;4.490;2023-04-16T03:34:01;102275.53;;;9.41;100.00
31005;BME280;17676;52.254;4.490;2023-04-16T03:36:26;102282.63;;;9.42;100.00
31005;BME280;17676;52.254;4.490;2023-04-16T03:38:52;102286.00;;;9.44;100.00
31005;BME280;17676;52.254;4.490;2023-04-16T03:41:18;102273.84;;;9.40;100.00
31005;BME280;17676;52.254;4.490;2023-04-16T03:43:43;102281.97;;;9.48;100.00
31005;BME280;17676;52.254;4.490;2023-04-16T03:46:09;102276.56;;;9.48;100.00
31005;BME280;17676;52.254;4.490;2023-04-16T03:48:35;102287.91;;;9.51;100.00
31005;BME280;17676;52.254;4.490;2023-04-16T03:51:03;102274.19;;;9.37;100.00
31005;BME280;17676;52.254;4.490;2023-04-16T03:53:29;102285.19;;;9.43;100.00
31005;BME280;17676;52.254;4.490;2023-04-16T03:55:55;102276.19;;;9.35;100.00
31005;BME280;17676;52.254;4.490;2023-04-16T03:58:21;102276.38;;;9.41;100.00
31005;BME280;17676;52.254;4.490;2023-04-16T04:00:46;102276.38;;;9.41;100.00
31005;BME280;17676;52.254;4.490;2023-04-16T04:03:12;102281.91;;;9.32;100.00
31005;BME280;17676;52.254;4.490;2023-04-16T04:05:41;102266.72;;;9.31;100.00
31005;BME280;17676;52.254;4.490;2023-04-16T04:08:07;102271.66;;;9.35;100.00
31005;BME280;17676;52.254;4.490;2023-04-16T04:10:34;102265.38;;;9.35;100.00
31005;BME280;17676;52.254;4.490;2023-04-16T04:13:02;102261.03;;;9.42;100.00
31005;BME280;17676;52.254;4.490;2023-04-16T04:15:27;102255.94;;;9.39;100.00
31005;BME280;17676;52.254;4.490;2023-04-16T04:17:53;102261.03;;;9.42;100.00
31005;BME280;17676;52.254;4.490;2023-04-16T04:20:19;102265.06;;;9.38;100.00
31005;BME280;17676;52.254;4.490;2023-04-16T04:22:45;102257.63;;;9.40;100.00
31005;BME280;17676;52.254;4.490;2023-04-16T04:25:13;102262.38;;;9.46;100.00
31005;BME280;17676;52.254;4.490;2023-04-16T04:27:39;102253.94;;;9.41;100.00
31005;BME280;17676;52.254;4.490;2023-04-16T04:30:06;102258.97;;;9.36;100.00
31005;BME280;17676;52.254;4.490;2023-04-16T04:32:32;102252.22;;;9.40;100.00
31005;BME280;17676;52.254;4.490;2023-04-16T04:34:59;102263.91;;;9.48;100.00
31005;BME280;17676;52.254;4.490;2023-04-16T04:37:25;102267.09;;;9.52;100.00
31005;BME280;17676;52.254;4.490;2023-04-16T04:39:51;102262.06;;;9.49;100.00
31005;BME280;17676;52.254;4.490;2023-04-16T04:42:17;102257.81;;;9.46;100.00
31005;BME280;17676;52.254;4.490;2023-04-16T04:44:43;102274.03;;;9.46;100.00
31005;BME280;17676;52.254;4.490;2023-04-16T04:47:09;102270.81;;;9.51;100.00
31005;BME280;17676;52.254;4.490;2023-04-16T04:49:35;102281.97;;;9.48;100.00
31005;BME280;17676;52.254;4.490;2023-04-16T04:52:00;102280.13;;;9.56;100.00
31005;BME280;17676;52.254;4.490;2023-04-16T04:54:30;102279.63;;;9.61;100.00
31005;BME280;17676;52.254;4.490;2023-04-16T04:56:56;102286.38;;;9.49;100.00
31005;BME280;17676;52.254;4.490;2023-04-16T04:59:24;102287.34;;;9.40;100.00
31005;BME280;17676;52.254;4.490;2023-04-16T05:01:50;102278.91;;;9.43;100.00
31005;BME280;17676;52.254;4.490;2023-04-16T05:04:16;102277.59;;;9.55;100.00
31005;BME280;17676;52.254;4.490;2023-04-16T05:06:42;102290.09;;;9.56;100.00
31005;BME280;17676;52.254;4.490;2023-04-16T05:09:09;102295.50;;;9.56;100.00
31005;BME280;17676;52.254;4.490;2023-04-16T05:11:37;102297.03;;;9.50;100.00
31005;BME280;17676;52.254;4.490;2023-04-16T05:14:03;102297.19;;;9.49;100.00
31005;BME280;17676;52.254;4.490;2023-04-16T05:16:29;102273.19;;;9.46;100.00
31005;BME280;17676;52.254;4.490;2023-04-16T05:18:54;102283.69;;;9.49;100.00
31005;BME280;17676;52.254;4.490;2023-04-16T05:21:20;102284.19;;;9.52;100.00
31005;BME280;17676;52.254;4.490;2023-04-16T05:23:46;102285.53;;;9.56;100.00
31005;BME280;17676;52.254;4.490;2023-04-16T05:26:12;102293.81;;;9.63;100.00
31005;BME280;17676;52.254;4.490;2023-04-16T05:28:37;102301.28;;;9.69;100.00
31005;BME280;17676;52.254;4.490;2023-04-16T05:31:03;102298.53;;;9.53;100.00
31005;BME280;17676;52.254;4.490;2023-04-16T05:33:28;102305.31;;;9.57;100.00
31005;BME280;17676;52.254;4.490;2023-04-16T05:35:54;102296.34;;;9.56;100.00
31005;BME280;17676;52.254;4.490;2023-04-16T05:38:20;102298.88;;;9.58;100.00
31005;BME280;17676;52.254;4.490;2023-04-16T05:40:46;102295.31;;;9.49;100.00
31005;BME280;17676;52.254;4.490;2023-04-16T05:43:11;102308.16;;;9.47;100.00
31005;BME280;17676;52.254;4.490;2023-04-16T05:45:37;102317.47;;;9.53;100.00
31005;BME280;17676;52.254;4.490;2023-04-16T05:48:08;102292.44;;;9.43;100.00
31005;BME280;17676;52.254;4.490;2023-04-16T05:50:34;102311.38;;;9.59;100.00
31005;BME280;17676;52.254;4.490;2023-04-16T05:53:01;102305.28;;;9.49;100.00
31005;BME280;17676;52.254;4.490;2023-04-16T05:55:26;102298.53;;;9.45;100.00
31005;BME280;17676;52.254;4.490;2023-04-16T05:57:52;102300.06;;;9.47;100.00
31005;BME280;17676;52.254;4.490;2023-04-16T06:00:18;102318.09;;;9.47;100.00
31005;BME280;17676;52.254;4.490;2023-04-16T06:02:44;102309.16;;;9.38;100.00
31005;BME280;17676;52.254;4.490;2023-04-16T06:05:10;102322.84;;;9.45;100.00
31005;BME280;17676;52.254;4.490;2023-04-16T06:07:36;102305.13;;;9.42;100.00
31005;BME280;17676;52.254;4.490;2023-04-16T06:10:01;102305.13;;;9.42;100.00
31005;BME280;17676;52.254;4.490;2023-04-16T06:12:27;102336.72;;;9.58;100.00
31005;BME280;17676;52.254;4.490;2023-04-16T06:14:52;102312.38;;;9.50;100.00
31005;BME280;17676;52.254;4.490;2023-04-16T06:17:18;102331.66;;;9.55;100.00
31005;BME280;17676;52.254;4.490;2023-04-16T06:19:44;102318.66;;;9.50;100.00
31005;BME280;17676;52.254;4.490;2023-04-16T06:22:10;102329.63;;;9.49;100.00
31005;BME280;17676;52.254;4.490;2023-04-16T06:24:36;102330.97;;;9.53;100.00
31005;BME280;17676;52.254;4.490;2023-04-16T06:27:01;102325.03;;;9.49;100.00
31005;BME280;17676;52.254;4.490;2023-04-16T06:29:27;102329.09;;;9.53;100.00
31005;BME280;17676;52.254;4.490;2023-04-16T06:31:53;102334.84;;;9.50;100.00
31005;BME280;17676;52.254;4.490;2023-04-16T06:34:19;102339.41;;;9.50;100.00
31005;BME280;17676;52.254;4.490;2023-04-16T06:36:45;102349.91;;;9.53;100.00
31005;BME280;17676;52.254;4.490;2023-04-16T06:39:10;102348.53;;;9.49;100.00
31005;BME280;17676;52.254;4.490;2023-04-16T06:41:36;102351.59;;;9.54;100.00
31005;BME280;17676;52.254;4.490;2023-04-16T06:44:02;102359.72;;;9.62;100.00
31005;BME280;17676;52.254;4.490;2023-04-16T06:46:27;102341.41;;;9.48;100.00
31005;BME280;17676;52.254;4.490;2023-04-16T06:48:53;102349.38;;;9.57;100.00
31005;BME280;17676;52.254;4.490;2023-04-16T06:51:20;102351.25;;;9.57;100.00
31005;BME280;17676;52.254;4.490;2023-04-16T06:53:45;102351.41;;;9.47;100.00
31005;BME280;17676;52.254;4.490;2023-04-16T06:56:11;102365.75;;;9.56;100.00
31005;BME280;17676;52.254;4.490;2023-04-16T06:58:37;102357.53;;;9.73;100.00
31005;BME280;17676;52.254;4.490;2023-04-16T07:01:03;102367.16;;;9.76;100.00
31005;BME280;17676;52.254;4.490;2023-04-16T07:03:29;102364.97;;;9.71;100.00
31005;BME280;17676;52.254;4.490;2023-04-16T07:05:55;102374.97;;;9.79;100.00
31005;BME280;17676;52.254;4.490;2023-04-16T07:08:21;102359.22;;;9.58;100.00
31005;BME280;17676;52.254;4.490;2023-04-16T07:10:47;102375.66;;;9.81;100.00
31005;BME280;17676;52.254;4.490;2023-04-16T07:13:12;102368.88;;;9.77;100.00
31005;BME280;17676;52.254;4.490;2023-04-16T07:15:38;102373.09;;;9.79;100.00
31005;BME280;17676;52.254;4.490;2023-04-16T07:18:04;102355.34;;;9.69;100.00
31005;BME280;17676;52.254;4.490;2023-04-16T07:20:30;102374.28;;;9.77;100.00
31005;BME280;17676;52.254;4.490;2023-04-16T07:22:55;102370.56;;;9.78;100.00
31005;BME280;17676;52.254;4.490;2023-04-16T07:25:23;102371.59;;;9.77;100.00
31005;BME280;17676;52.254;4.490;2023-04-16T07:27:49;102370.53;;;9.70;100.00
31005;BME280;17676;52.254;4.490;2023-04-16T07:30:15;102374.44;;;9.67;100.00
31005;BME280;17676;52.254;4.490;2023-04-16T07:32:41;102369.53;;;9.71;100.00
31005;BME280;17676;52.254;4.490;2023-04-16T07:35:07;102377.66;;;9.79;100.00
31005;BME280;17676;52.254;4.490;2023-04-16T07:37:33;102364.84;;;9.81;100.00
31005;BME280;17676;52.254;4.490;2023-04-16T07:39:59;102376.28;;;9.67;100.00
31005;BME280;17676;52.254;4.490;2023-04-16T07:42:26;102380.03;;;9.74;100.00
31005;BME280;17676;52.254;4.490;2023-04-16T07:44:52;102375.78;;;9.71;100.00
31005;BME280;17676;52.254;4.490;2023-04-16T07:47:18;102380.72;;;9.84;100.00
31005;BME280;17676;52.254;4.490;2023-04-16T07:49:43;102377.34;;;9.82;100.00
31005;BME280;17676;52.254;4.490;2023-04-16T07:52:09;102387.47;;;9.88;100.00
31005;BME280;17676;52.254;4.490;2023-04-16T07:54:34;102383.97;;;9.95;100.00
31005;BME280;17676;52.254;4.490;2023-04-16T07:57:00;102392.41;;;10.00;100.00
31005;BME280;17676;52.254;4.490;2023-04-16T07:59:26;102399.06;;;10.14;100.00
31005;BME280;17676;52.254;4.490;2023-04-16T08:01:52;102401.75;;;10.06;100.00
31005;BME280;17676;52.254;4.490;2023-04-16T08:04:18;102394.09;;;10.01;100.00
31005;BME280;17676;52.254;4.490;2023-04-16T08:06:51;102383.13;;;10.03;100.00
31005;BME280;17676;52.254;4.490;2023-04-16T08:09:18;102399.34;;;10.03;100.00
31005;BME280;17676;52.254;4.490;2023-04-16T08:11:44;102387.44;;;9.80;100.00
31005;BME280;17676;52.254;4.490;2023-04-16T08:14:10;102392.56;;;9.91;100.00
31005;BME280;17676;52.254;4.490;2023-04-16T08:16:36;102392.41;;;9.92;100.00
31005;BME280;17676;52.254;4.490;2023-04-16T08:19:03;102399.47;;;9.85;100.00
31005;BME280;17676;52.254;4.490;2023-04-16T08:21:28;102389.84;;;9.83;100.00
31005;BME280;17676;52.254;4.490;2023-04-16T08:23:55;102402.72;;;9.97;100.00
31005;BME280;17676;52.254;4.490;2023-04-16T08:26:20;102403.56;;;9.97;100.00
31005;BME280;17676;52.254;4.490;2023-04-16T08:28:47;102400.06;;;10.05;100.00
31005;BME280;17676;52.254;4.490;2023-04-16T08:31:13;102398.72;;;10.09;100.00
31005;BME280;17676;52.254;4.490;2023-04-16T08:33:39;102393.97;;;10.11;100.00
31005;BME280;17676;52.254;4.490;2023-04-16T08:36:07;102400.91;;;10.22;100.00
31005;BME280;17676;52.254;4.490;2023-04-16T08:38:34;102395.69;;;10.28;100.00
31005;BME280;17676;52.254;4.490;2023-04-16T08:41:02;102398.38;;;10.28;100.00
31005;BME280;17676;52.254;4.490;2023-04-16T08:43:32;102411.59;;;10.31;100.00
31005;BME280;17676;52.254;4.490;2023-04-16T08:45:59;102414.97;;;10.41;100.00
31005;BME280;17676;52.254;4.490;2023-04-16T08:48:28;102409.53;;;10.41;100.00
31005;BME280;17676;52.254;4.490;2023-04-16T08:50:59;102416.31;;;10.53;100.00
31005;BME280;17676;52.254;4.490;2023-04-16T08:53:31;102412.94;;;10.51;100.00
31005;BME280;17676;52.254;4.490;2023-04-16T08:55:58;102415.97;;;10.40;100.00
31005;BME280;17676;52.254;4.490;2023-04-16T08:58:30;102400.44;;;10.26;100.00
31005;BME280;17676;52.254;4.490;2023-04-16T09:00:59;102410.56;;;10.24;100.00
31005;BME280;17676;52.254;4.490;2023-04-16T09:03:28;102415.50;;;10.37;100.00
31005;BME280;17676;52.254;4.490;2023-04-16T09:05:54;102415.66;;;10.35;100.00
31005;BME280;17676;52.254;4.490;2023-04-16T09:08:22;102412.28;;;10.25;100.00
31005;BME280;17676;52.254;4.490;2023-04-16T09:10:49;102404.66;;;10.37;100.00
31005;BME280;17676;52.254;4.490;2023-04-16T09:13:15;102404.50;;;10.46;100.00
31005;BME280;17676;52.254;4.490;2023-04-16T09:15:46;102408.19;;;10.45;100.00
31005;BME280;17676;52.254;4.490;2023-04-16T09:18:11;102419.72;;;10.39;100.00
31005;BME280;17676;52.254;4.490;2023-04-16T09:20:38;102415.16;;;10.56;100.00
31005;BME280;17676;52.254;4.490;2023-04-16T09:23:03;102411.59;;;10.55;100.00
31005;BME280;17676;52.254;4.490;2023-04-16T09:25:33;102417.00;;;10.63;100.00
31005;BME280;17676;52.254;4.490;2023-04-16T09:28:02;102427.81;;;10.79;100.00
31005;BME280;17676;52.254;4.490;2023-04-16T09:30:28;102432.75;;;10.76;100.00
31005;BME280;17676;52.254;4.490;2023-04-16T09:33:18;102429.19;;;10.51;100.00
31005;BME280;17676;52.254;4.490;2023-04-16T09:35:52;102423.78;;;10.59;100.00
31005;BME280;17676;52.254;4.490;2023-04-16T09:38:19;102434.28;;;10.54;100.00
31005;BME280;17676;52.254;4.490;2023-04-16T09:40:45;102431.72;;;10.69;100.00
31005;BME280;17676;52.254;4.490;2023-04-16T09:43:16;102431.56;;;10.78;100.00
31005;BME280;17676;52.254;4.490;2023-04-16T09:45:50;102446.94;;;10.86;100.00
31005;BME280;17676;52.254;4.490;2023-04-16T09:48:27;102438.16;;;10.76;100.00
31005;BME280;17676;52.254;4.490;2023-04-16T09:50:53;102437.66;;;10.72;100.00
31005;BME280;17676;52.254;4.490;2023-04-16T09:53:25;102449.81;;;10.76;100.00
31005;BME280;17676;52.254;4.490;2023-04-16T09:55:59;102442.72;;;10.67;100.00
31005;BME280;17676;52.254;4.490;2023-04-16T09:58:25;102444.09;;;10.71;100.00
31005;BME280;17676;52.254;4.490;2023-04-16T10:01:01;102434.59;;;10.67;100.00
31005;BME280;17676;52.254;4.490;2023-04-16T10:03:31;102453.22;;;10.78;100.00
31005;BME280;17676;52.254;4.490;2023-04-16T10:06:20;102449.16;;;10.66;100.00
31005;BME280;17676;52.254;4.490;2023-04-16T10:08:52;102456.75;;;10.71;100.00
31005;BME280;17676;52.254;4.490;2023-04-16T10:11:20;102463.03;;;10.71;100.00
31005;BME280;17676;52.254;4.490;2023-04-16T10:13:47;102441.69;;;10.84;100.00
31005;BME280;17676;52.254;4.490;2023-04-16T10:16:13;102442.56;;;10.77;100.00
31005;BME280;17676;52.254;4.490;2023-04-16T10:18:42;102441.34;;;11.03;100.00
31005;BME280;17676;52.254;4.490;2023-04-16T10:21:10;102456.22;;;11.15;100.00
31005;BME280;17676;52.254;4.490;2023-04-16T10:23:40;102459.44;;;11.11;100.00
31005;BME280;17676;52.254;4.490;2023-04-16T10:26:06;102443.72;;;10.98;100.00
31005;BME280;17676;52.254;4.490;2023-04-16T10:28:32;102472.97;;;11.19;100.00
31005;BME280;17676;52.254;4.490;2023-04-16T10:31:02;102448.56;;;11.27;100.00
31005;BME280;17676;52.254;4.490;2023-04-16T10:33:32;102459.56;;;11.33;100.00
31005;BME280;17676;52.254;4.490;2023-04-16T10:38:46;102477.22;;;11.13;100.00
31005;BME280;17676;52.254;4.490;2023-04-16T10:41:13;102468.78;;;10.84;100.00
31005;BME280;17676;52.254;4.490;2023-04-16T10:43:44;102475.53;;;11.04;100.00
31005;BME280;17676;52.254;4.490;2023-04-16T10:46:24;102478.56;;;11.09;100.00
31005;BME280;17676;52.254;4.490;2023-04-16T10:48:57;102478.94;;;11.14;100.00
31005;BME280;17676;52.254;4.490;2023-04-16T10:51:29;102482.63;;;11.13;100.00
31005;BME280;17676;52.254;4.490;2023-04-16T10:56:34;102457.78;;;10.94;100.00
31005;BME280;17676;52.254;4.490;2023-04-16T10:59:03;102471.47;;;11.08;100.00
31005;BME280;17676;52.254;4.490;2023-04-16T11:01:33;102477.22;;;11.05;100.00
31005;BME280;17676;52.254;4.490;2023-04-16T11:07:14;102475.03;;;11.01;100.00
31005;BME280;17676;52.254;4.490;2023-04-16T11:12:14;102463.50;;;11.07;100.00
31005;BME280;17676;52.254;4.490;2023-04-16T11:14:41;102463.00;;;11.19;100.00
31005;BME280;17676;52.254;4.490;2023-04-16T11:17:08;102455.53;;;11.05;100.00
31005;BME280;17676;52.254;4.490;2023-04-16T11:19:37;102452.50;;;11.08;100.00
31005;BME280;17676;52.254;4.490;2023-04-16T11:22:03;102460.56;;;11.32;100.00
31005;BME280;17676;52.254;4.490;2023-04-16T11:24:32;102477.97;;;11.54;100.00
31005;BME280;17676;52.254;4.490;2023-04-16T11:26:58;102455.88;;;11.26;100.00
31005;BME280;17676;52.254;4.490;2023-04-16T11:29:23;102474.50;;;11.13;100.00
31005;BME280;17676;52.254;4.490;2023-04-16T11:31:53;102469.97;;;10.98;100.00
31005;BME280;17676;52.254;4.490;2023-04-16T11:34:19;102463.00;;;11.19;100.00
31005;BME280;17676;52.254;4.490;2023-04-16T11:36:46;102458.38;;;11.28;100.00
31005;BME280;17676;52.254;4.490;2023-04-16T11:39:12;102464.28;;;11.39;100.00
31005;BME280;17676;52.254;4.490;2023-04-16T11:41:53;102471.69;;;11.53;100.00
31005;BME280;17676;52.254;4.490;2023-04-16T11:44:22;102464.16;;;11.33;100.00
31005;BME280;17676;52.254;4.490;2023-04-16T11:46:49;102454.88;;;11.11;100.00
31005;BME280;17676;52.254;4.490;2023-04-16T11:49:15;102463.00;;;11.19;100.00
31005;BME280;17676;52.254;4.490;2023-04-16T11:51:45;102470.34;;;11.49;100.00
31005;BME280;17676;52.254;4.490;2023-04-16T11:54:19;102463.78;;;11.36;100.00
31005;BME280;17676;52.254;4.490;2023-04-16T11:56:46;102475.47;;;11.44;100.00
31005;BME280;17676;52.254;4.490;2023-04-16T11:59:17;102472.38;;;11.63;100.00
31005;BME280;17676;52.254;4.490;2023-04-16T12:01:48;102460.50;;;11.56;100.00
31005;BME280;17676;52.254;4.490;2023-04-16T12:04:18;102464.72;;;11.59;100.00
31005;BME280;17676;52.254;4.490;2023-04-16T12:07:11;102471.34;;;11.64;100.00
31005;BME280;17676;52.254;4.490;2023-04-16T12:09:38;102457.84;;;11.40;100.00
31005;BME280;17676;52.254;4.490;2023-04-16T12:12:04;102478.72;;;11.24;100.00
31005;BME280;17676;52.254;4.490;2023-04-16T12:14:31;102478.53;;;11.25;100.00
31005;BME280;17676;52.254;4.490;2023-04-16T12:17:19;102483.09;;;11.41;100.00
31005;BME280;17676;52.254;4.490;2023-04-16T12:19:55;102490.06;;;11.35;100.00
31005;BME280;17676;52.254;4.490;2023-04-16T12:22:34;102487.19;;;11.37;100.00
31005;BME280;17676;52.254;4.490;2023-04-16T12:25:05;102475.69;;;11.11;100.00
31005;BME280;17676;52.254;4.490;2023-04-16T12:30:50;102478.94;;;11.14;100.00
31005;BME280;17676;52.254;4.490;2023-04-16T12:33:18;102469.41;;;11.26;100.00
31005;BME280;17676;52.254;4.490;2023-04-16T12:35:49;102476.16;;;11.38;100.00
31005;BME280;17676;52.254;4.490;2023-04-16T12:38:21;102464.13;;;11.41;100.00
31005;BME280;17676;52.254;4.490;2023-04-16T12:40:57;102464.44;;;11.46;100.00
31005;BME280;17676;52.254;4.490;2023-04-16T12:43:38;102482.19;;;11.56;100.00
31005;BME280;17676;52.254;4.490;2023-04-16T12:46:07;102483.19;;;11.71;100.00
31005;BME280;17676;52.254;4.490;2023-04-16T12:48:36;102479.16;;;11.51;100.00
31005;BME280;17676;52.254;4.490;2023-04-16T12:51:02;102472.38;;;11.63;100.00
31005;BME280;17676;52.254;4.490;2023-04-16T12:53:28;102466.25;;;11.69;100.00
31005;BME280;17676;52.254;4.490;2023-04-16T12:55:53;102488.53;;;11.95;100.00
31005;BME280;17676;52.254;4.490;2023-04-16T12:58:22;102490.78;;;12.14;100.00
31005;BME280;17676;52.254;4.490;2023-04-16T13:00:51;102481.03;;;11.97;100.00